sensor_id;sensor_type;location;lat;lon;timestamp;pressure;altitude;pressure_sealevel;temperature;humidity
36138;BME280;67787;50.074;21.904;2023-10-31T11:03:43;97723.98;;;18.08;58.57
36138;BME280;67787;50.074;21.904;2023-10-31T11:06:13;97720.21;;;18.05;58.53
36138;BME280;67787;50.074;21.904;2023-10-31T11:08:46;97716.66;;;18.05;58.43
36138;BME280;67787;50.074;21.904;2023-10-31T11:11:17;97717.79;;;18.06;58.54
36138;BME280;67787;50.074;21.904;2023-10-31T11:13:46;97711.36;;;18.09;58.49
36138;BME280;67787;50.074;21.904;2023-10-31T11:16:25;97712.45;;;18.12;58.48
36138;BME280;67787;50.074;21.904;2023-10-31T11:18:54;97710.68;;;18.07;58.53
36138;BME280;67787;50.074;21.904;2023-10-31T11:21:28;97706.98;;;17.99;58.50
36138;BME280;67787;50.074;21.904;2023-10-31T11:24:04;97700.13;;;17.92;58.43
36138;BME280;67787;50.074;21.904;2023-10-31T11:26:32;97702.01;;;17.90;58.44
36138;BME280;67787;50.074;21.904;2023-10-31T11:29:10;97701.63;;;17.90;58.49
36138;BME280;67787;50.074;21.904;2023-10-31T11:31:39;97694.74;;;17.92;58.44
36138;BME280;67787;50.074;21.904;2023-10-31T11:34:11;97692.20;;;17.95;58.39
36138;BME280;67787;50.074;21.904;2023-10-31T11:36:43;97684.14;;;17.99;58.43
36138;BME280;67787;50.074;21.904;2023-10-31T11:39:17;97682.73;;;18.05;58.52
36138;BME280;67787;50.074;21.904;2023-10-31T11:41:54;97683.28;;;18.08;58.49
36138;BME280;67787;50.074;21.904;2023-10-31T11:44:25;97667.58;;;18.04;58.38
36138;BME280;67787;50.074;21.904;2023-10-31T11:46:58;97675.63;;;17.97;58.29
36138;BME280;67787;50.074;21.904;2023-10-31T11:53:10;97679.52;;;17.79;58.37
36138;BME280;67787;50.074;21.904;2023-10-31T11:55:46;97685.28;;;17.84;58.46
36138;BME280;67787;50.074;21.904;2023-10-31T11:58:18;97687.40;;;17.91;58.43
36138;BME280;67787;50.074;21.904;2023-10-31T12:00:49;97689.00;;;17.95;58.34
36138;BME280;67787;50.074;21.904;2023-10-31T12:03:20;97686.67;;;17.98;58.42
36138;BME280;67787;50.074;21.904;2023-10-31T12:05:57;97683.19;;;17.98;58.35
36138;BME280;67787;50.074;21.904;2023-10-31T12:08:46;97693.94;;;17.99;58.30
36138;BME280;67787;50.074;21.904;2023-10-31T12:11:20;97697.34;;;17.97;58.27
36138;BME280;67787;50.074;21.904;2023-10-31T12:13:57;97699.48;;;17.96;58.36
36138;BME280;67787;50.074;21.904;2023-10-31T12:16:33;97690.35;;;17.91;58.24
36138;BME280;67787;50.074;21.904;2023-10-31T12:19:03;97689.09;;;17.86;58.23
36138;BME280;67787;50.074;21.904;2023-10-31T12:21:42;97684.39;;;17.82;58.27
36138;BME280;67787;50.074;21.904;2023-10-31T12:24:16;97674.77;;;17.78;58.43
36138;BME280;67787;50.074;21.904;2023-10-31T12:26:45;97681.36;;;17.74;58.29
36138;BME280;67787;50.074;21.904;2023-10-31T12:29:17;97683.53;;;17.70;58.21
36138;BME280;67787;50.074;21.904;2023-10-31T12:31:53;97681.34;;;17.67;58.36
36138;BME280;67787;50.074;21.904;2023-10-31T12:34:23;97680.05;;;17.66;58.30
36138;BME280;67787;50.074;21.904;2023-10-31T12:36:54;97674.02;;;17.65;58.41
36138;BME280;67787;50.074;21.904;2023-10-31T12:39:27;97673.61;;;17.67;58.30
36138;BME280;67787;50.074;21.904;2023-10-31T12:42:03;97673.42;;;17.69;58.25
36138;BME280;67787;50.074;21.904;2023-10-31T12:45:57;97674.06;;;17.71;58.27
36138;BME280;67787;50.074;21.904;2023-10-31T12:48:25;97672.45;;;17.73;58.38
36138;BME280;67787;50.074;21.904;2023-10-31T12:54:11;97663.27;;;17.73;58.39
36138;BME280;67787;50.074;21.904;2023-10-31T12:56:44;97653.75;;;17.71;58.39
36138;BME280;67787;50.074;21.904;2023-10-31T12:59:18;97652.00;;;17.69;58.43
36138;BME280;67787;50.074;21.904;2023-10-31T13:01:53;97654.89;;;17.69;58.36
36138;BME280;67787;50.074;21.904;2023-10-31T13:04:27;97652.70;;;17.68;58.25
36138;BME280;67787;50.074;21.904;2023-10-31T13:07:30;97659.92;;;17.68;58.28
36138;BME280;67787;50.074;21.904;2023-10-31T13:09:59;97667.09;;;17.68;58.35
36138;BME280;67787;50.074;21.904;2023-10-31T13:13:19;97662.49;;;17.68;58.38
36138;BME280;67787;50.074;21.904;2023-10-31T13:15:47;97665.02;;;17.68;58.37
36138;BME280;67787;50.074;21.904;2023-10-31T13:18:15;97663.81;;;17.67;58.46
36138;BME280;67787;50.074;21.904;2023-10-31T13:20:43;97667.55;;;17.65;58.35
36138;BME280;67787;50.074;21.904;2023-10-31T13:23:14;97677.92;;;17.64;58.47
36138;BME280;67787;50.074;21.904;2023-10-31T13:25:43;97675.01;;;17.63;58.39
36138;BME280;67787;50.074;21.904;2023-10-31T13:28:44;97678.52;;;17.62;58.45
36138;BME280;67787;50.074;21.904;2023-10-31T13:31:12;97676.91;;;17.62;58.34
36138;BME280;67787;50.074;21.904;2023-10-31T13:33:43;97680.96;;;17.63;58.44
36138;BME280;67787;50.074;21.904;2023-10-31T13:36:37;97679.98;;;17.62;58.47
36138;BME280;67787;50.074;21.904;2023-10-31T13:39:06;97674.61;;;17.61;58.44
36138;BME280;67787;50.074;21.904;2023-10-31T13:41:44;97676.46;;;17.59;58.50
36138;BME280;67787;50.074;21.904;2023-10-31T13:44:12;97671.54;;;17.55;58.42
36138;BME280;67787;50.074;21.904;2023-10-31T13:46:40;97664.98;;;17.53;58.43
36138;BME280;67787;50.074;21.904;2023-10-31T13:49:09;97659.02;;;17.50;58.46
36138;BME280;67787;50.074;21.904;2023-10-31T13:51:38;97648.27;;;17.47;58.37
36138;BME280;67787;50.074;21.904;2023-10-31T13:54:06;97645.02;;;17.42;58.36
36138;BME280;67787;50.074;21.904;2023-10-31T13:56:37;97641.95;;;17.38;58.40
36138;BME280;67787;50.074;21.904;2023-10-31T13:59:05;97635.36;;;17.32;58.53
36138;BME280;67787;50.074;21.904;2023-10-31T14:01:54;97640.92;;;17.25;58.54
36138;BME280;67787;50.074;21.904;2023-10-31T14:04:26;97648.92;;;17.22;58.60
36138;BME280;67787;50.074;21.904;2023-10-31T14:06:56;97640.95;;;17.18;58.55
36138;BME280;67787;50.074;21.904;2023-10-31T14:09:28;97635.16;;;17.13;58.57
36138;BME280;67787;50.074;21.904;2023-10-31T14:11:58;97636.53;;;17.07;58.59
36138;BME280;67787;50.074;21.904;2023-10-31T14:14:26;97633.24;;;17.02;58.60
36138;BME280;67787;50.074;21.904;2023-10-31T14:16:57;97630.75;;;16.95;58.60
36138;BME280;67787;50.074;21.904;2023-10-31T14:19:26;97632.41;;;16.89;58.62
36138;BME280;67787;50.074;21.904;2023-10-31T14:21:54;97628.51;;;16.85;58.74
36138;BME280;67787;50.074;21.904;2023-10-31T14:24:22;97617.14;;;16.78;58.55
36138;BME280;67787;50.074;21.904;2023-10-31T14:26:50;97619.31;;;16.73;58.75
36138;BME280;67787;50.074;21.904;2023-10-31T14:29:22;97617.89;;;16.67;58.60
36138;BME280;67787;50.074;21.904;2023-10-31T14:31:50;97610.05;;;16.62;58.70
36138;BME280;67787;50.074;21.904;2023-10-31T14:34:20;97612.90;;;16.57;58.60
36138;BME280;67787;50.074;21.904;2023-10-31T14:36:51;97621.69;;;16.50;58.59
36138;BME280;67787;50.074;21.904;2023-10-31T14:39:19;97625.20;;;16.43;58.71
36138;BME280;67787;50.074;21.904;2023-10-31T14:41:47;97607.70;;;16.38;58.65
36138;BME280;67787;50.074;21.904;2023-10-31T14:44:15;97605.68;;;16.33;58.81
36138;BME280;67787;50.074;21.904;2023-10-31T14:46:46;97605.63;;;16.28;58.68
36138;BME280;67787;50.074;21.904;2023-10-31T14:49:17;97604.86;;;16.24;58.74
36138;BME280;67787;50.074;21.904;2023-10-31T14:51:49;97611.64;;;16.19;58.76
36138;BME280;67787;50.074;21.904;2023-10-31T14:54:19;97607.55;;;16.16;58.74
36138;BME280;67787;50.074;21.904;2023-10-31T14:56:47;97599.86;;;16.13;58.86
36138;BME280;67787;50.074;21.904;2023-10-31T14:59:15;97593.76;;;16.10;58.88
36138;BME280;67787;50.074;21.904;2023-10-31T15:01:46;97580.73;;;16.08;58.87
36138;BME280;67787;50.074;21.904;2023-10-31T15:04:14;97583.77;;;16.06;58.88
36138;BME280;67787;50.074;21.904;2023-10-31T15:06:44;97582.00;;;16.06;58.92
36138;BME280;67787;50.074;21.904;2023-10-31T15:09:32;97583.67;;;16.06;59.07
36138;BME280;67787;50.074;21.904;2023-10-31T15:12:02;97591.02;;;16.06;59.06
36138;BME280;67787;50.074;21.904;2023-10-31T15:14:33;97612.23;;;16.06;59.09
36138;BME280;67787;50.074;21.904;2023-10-31T15:17:01;97663.59;;;16.07;59.09
36138;BME280;67787;50.074;21.904;2023-10-31T15:19:33;97698.14;;;16.09;59.23
36138;BME280;67787;50.074;21.904;2023-10-31T15:22:00;97694.36;;;16.11;59.22
36138;BME280;67787;50.074;21.904;2023-10-31T15:24:28;97688.31;;;16.12;59.33
